Detall de PIREP

Printer-friendly versionPDF version

[2008/12/17 20:18:00]
Flight IATA:CT0001
Pilot Number:041
Company ICAO:CAT
Aircraft Type:BE20/A
PAX:5
Departing Airport: LELC
Destination Airport: LEIB
Alternate Airport:LEPA
Online: VATSIM
Route:PALOS1B B112 ALT B46 POLOP B46 MITOS B46 BRUNO2V
Flight Level:FL080
No Slew and time accel
No pause
Crash detect
Detect pilot in Cockpit between each 30 and 45 minutes
20:18 Zero fuel Weight: 9468 Lbs, Fuel Weight: 1975 Lbs
20:18 VATSIM:LELC 172000Z 28004KT CAVOK 09/03 Q1018 NOSIG
20:18 VATSIM:LEIB 172000Z 00000KT CAVOK 09/06 Q1017 NOSIG
20:19 VOICE CATALONIAN
20:21 Parking Brakes off
20:27 Take-off
20:27 Take off Weight: 11400 Lbs
20:27 Wind: 293º @ 001 Knots Heading: 225º
20:27 POS N37º 46´ 26´´ W000º 48´ 48´´
20:27 Gear Up: 139 Knots
20:27 Flaps:1 at 139 Knots
20:27 Flaps:0 at 149 Knots
20:42 Wind:346º@015 Knots Heading: 359º Ground Speed: 209 Knots Altitude 6656 ft

20:43 TOC
20:43 Fuel Weight: 1713 Lb
20:57 Wind:007º@025 Knots Heading: 059º Ground Speed: 225 Knots Altitude 8126 ft
20:58 TOD
20:58 Fuel Weight: 1529 Lb
21:12 Wind:337º@011 Knots Heading: 074º Ground Speed: 201 Knots Altitude 2834 ft
21:13 Flaps:1 at 190 Knots
21:14 Gear Down: 169 Knots
21:14 Flaps:2 at 143 Knots
21:16 TouchDown:Rate -141 ft/min Speed: 101 Knots
21:16 Flaps:0 at 85 Knots
21:17 VATSIM:LEIB 172100Z VRB02KT CAVOK 07/05 Q1017 NOSIG
21:17 Land
21:17 Wind:339º@002 Knots
21:17 Heading: 063º
21:17 Flight Duration: 00:50
21:17 Landing Weight: 10838 Lbs
21:17 POS N38º 52´ 29´´ E001º 22´ 40´´
21:22 Parking brakes on
21:22 Block to Block Duration: 01:01
21:22 Final Fuel: 1347 Lbls
21:22 Spent Fuel: 628 Lbls
21:22 Flight Length: 178 NM
21:22 TOD Land Length: 63 NM

Exportar CSV

Powered by Drupal - Modified by Danger4k